Terminal Aerodrome Forecast
Issued by NWS Springfield, MO

Home | Current Version | Previous Version | Text Only | Print | Product List | Glossary On
Versions: 1 2 3 4 5 6 7 8 9 10 11 12 13 14 15
000
FTUS43 KSGF 061300 AAA
TAFSGF
TAF AMD
KSGF 061328Z 0613/0712 18015G22KT 5SM -SHRA BKN050 OVC100
      TEMPO 0616/0620 3SM TSRA SCT015 OVC025CB
     FM062000 17015G20KT P6SM BKN040
     FM070000 15013KT P6SM BKN150
     FM070600 16012KT P6SM SCT250 WS020/19040KT=

USA.gov is the U.S. government's official web portal to all federal, state and local government web resources and services.